METAR Data
IDs: Format: Raw Decoded Include TAF

Data at: 1307 UTC 11 Dec 2018

KRPH 111255Z AUTO 00000KT 10SM CLR M01/M01 A3027 RMK AO2 T10061013
KRPH 111235Z AUTO 00000KT 10SM CLR 00/M01 A3028 RMK AO2 T10051012
KRPH 111215Z AUTO 00000KT 10SM CLR M01/M01 A3028 RMK AO2 T10081013
KRPH 111155Z AUTO 00000KT 10SM CLR M01/M01 A3028 RMK AO2 T10091014 10009 21015
KRPH 111135Z AUTO 00000KT 10SM CLR M01/M01 A3027 RMK AO2 T10121013
KRPH 111115Z AUTO 00000KT 10SM CLR M01/M01 A3027 RMK AO2 T10061008
KRPH 111055Z AUTO 00000KT 10SM CLR M01/M01 A3028 RMK AO2 T10061013
KRPH 111035Z AUTO 00000KT 10SM CLR 00/M01 A3028 RMK AO2 T10051009
KRPH 111015Z AUTO 00000KT 10SM CLR 00/00 A3028 RMK AO2 T00041002
KRPH 110955Z AUTO 00000KT 10SM CLR 00/M01 A3029 RMK AO2 T10031009
KRPH 110935Z AUTO 00000KT 10SM CLR M01/M02 A3029 RMK AO2 T10151016
KRPH 110915Z AUTO 00000KT 10SM CLR M01/M01 A3030 RMK AO2 T10101014
KRPH 110855Z AUTO 00000KT 10SM CLR M01/M01 A3030 RMK AO2 T10071014
KRPH 110835Z AUTO 00000KT 10SM CLR 00/M01 A3031 RMK AO2 T10051012
KRPH 110815Z AUTO 00000KT 10SM CLR 00/M01 A3031 RMK AO2 T10051012
KRPH 110755Z AUTO 00000KT 10SM CLR M01/M02 A3031 RMK AO2 T10111016
KRPH 110735Z AUTO 00000KT 10SM CLR M01/M02 A3031 RMK AO2 T10121017
KRPH 110715Z AUTO 00000KT 10SM CLR M01/M02 A3032 RMK AO2 T10101017
KRPH 110655Z AUTO 00000KT 10SM CLR M01/M01 A3032 RMK AO2 T10101014
KRPH 110635Z AUTO 00000KT 10SM CLR M01/M02 A3032 RMK AO2 T10121017
KRPH 110615Z AUTO 00000KT 10SM CLR M01/M02 A3032 RMK AO2 T10081017
KRPH 110555Z AUTO 00000KT 10SM CLR M01/M02 A3032 RMK AO2 T10071017 10103 21008 401421045
KRPH 110535Z AUTO 00000KT 10SM CLR 00/M01 A3032 RMK AO2 T10021014
KRPH 110515Z AUTO 00000KT 10SM CLR 00/M01 A3032 RMK AO2 T00001015
KRPH 110455Z AUTO 00000KT 10SM CLR 00/M01 A3032 RMK AO2 T00001013
KRPH 110435Z AUTO 00000KT 10SM CLR 00/M01 A3032 RMK AO2 T00021011
KRPH 110415Z AUTO 00000KT 10SM CLR M01/M02 A3032 RMK AO2 T10071017
KRPH 110355Z AUTO 00000KT 10SM CLR 01/M01 A3032 RMK AO2 T00061010
KRPH 110335Z AUTO 00000KT 10SM CLR 01/M01 A3032 RMK AO2 T00101010
KRPH 110315Z AUTO 00000KT 10SM CLR 01/M01 A3032 RMK AO2 T00131008
KRPH 110255Z AUTO 00000KT 10SM CLR 02/M01 A3032 RMK AO2 T00151007
KRPH 110235Z AUTO 00000KT 10SM CLR 02/M01 A3032 RMK AO2 T00191006
KRPH 110215Z AUTO 00000KT 10SM CLR 02/00 A3032 RMK AO2 T00191005
KRPH 110200Z AUTO 00000KT 10SM CLR 03/M01 A3032 RMK AO2 T00301006
KRPH 110135Z AUTO 00000KT 10SM CLR 04/M01 A3033 RMK AO2 T00421011
KRPH 110115Z AUTO 00000KT 10SM CLR 05/M01 A3033 RMK AO2 T00451012
KRPH 110055Z AUTO 00000KT 10SM CLR 06/M02 A3032 RMK AO2 T00571016
KRPH 110035Z AUTO 00000KT 10SM CLR 06/M02 A3032 RMK AO2 T00601016
KRPH 110015Z AUTO 00000KT 10SM CLR 10/M02 A3031 RMK AO2 T00971021
KRPH 102355Z AUTO 00000KT 10SM CLR 11/M03 A3030 RMK AO2 T01061033 10142 20094
KRPH 102335Z AUTO 00000KT 10SM CLR 12/M03 A3030 RMK AO2 T01171032
KRPH 102315Z AUTO 00000KT 10SM CLR 13/M03 A3030 RMK AO2 T01271031
KRPH 102255Z AUTO 00000KT 10SM CLR 13/M03 A3030 RMK AO2 T01321031
KRPH 102235Z AUTO 00000KT 10SM CLR 14/M03 A3030 RMK AO2 T01351032
KRPH 102215Z AUTO 00000KT 10SM CLR 14/M03 A3030 RMK AO2 T01381029
KRPH 102200Z AUTO 00000KT 10SM CLR 14/M03 A3030 RMK AO2 T01381030
KRPH 102135Z AUTO 00000KT 10SM CLR 14/M03 A3030 RMK AO2 T01381028
KRPH 102115Z AUTO 00000KT 10SM CLR 14/M03 A3030 RMK AO2 T01401031
KRPH 102055Z AUTO 00000KT 10SM CLR 14/M03 A3030 RMK AO2 T01421029
KRPH 102035Z AUTO 00000KT 10SM CLR 14/M02 A3030 RMK AO2 T01361021
KRPH 102020Z AUTO 00000KT 10SM CLR 13/M02 A3030 RMK AO2 T01331021
KRPH 101955Z AUTO 00000KT 10SM CLR 13/00 A3031 RMK AO2 T01261003
KRPH 101935Z AUTO 00000KT 10SM CLR 12/00 A3032 RMK AO2 T01201003
KRPH 101915Z AUTO 00000KT 10SM CLR 12/M01 A3033 RMK AO2 T01161006
KRPH 101855Z AUTO 00000KT 10SM CLR 12/01 A3034 RMK AO2 T01150007
KRPH 101835Z AUTO 00000KT 10SM CLR 11/01 A3035 RMK AO2 T01100007
KRPH 101815Z AUTO 00000KT 10SM CLR 10/01 A3035 RMK AO2 T01010009
KRPH 101755Z AUTO 00000KT 10SM CLR 09/01 A3037 RMK AO2 T00920014 10092 21045
KRPH 101735Z AUTO 00000KT 10SM CLR 08/01 A3038 RMK AO2 T00820009
KRPH 101715Z AUTO 00000KT 10SM CLR 08/00 A3039 RMK AO2 T00750004
KRPH 101655Z AUTO 00000KT 10SM CLR 06/00 A3040 RMK AO2 T00580001
KRPH 101635Z AUTO 00000KT 10SM CLR 05/00 A3040 RMK AO2 T00520000
KRPH 101615Z AUTO 00000KT 10SM CLR 04/00 A3040 RMK AO2 T00420000
KRPH 101555Z AUTO 00000KT 10SM CLR 03/00 A3039 RMK AO2 T00300000
KRPH 101535Z AUTO 23004KT 10SM CLR 02/00 A3039 RMK AO2 T00171001
KRPH 101515Z AUTO 00000KT 10SM CLR 00/00 A3039 RMK AO2 T00041005
KRPH 101455Z AUTO 00000KT 10SM CLR M01/M02 A3039 RMK AO2 T10101017
KRPH 101435Z AUTO 00000KT 10SM CLR M02/M02 A3038 RMK AO2 T10211025
KRPH 101415Z AUTO 00000KT 10SM CLR M03/M03 A3037 RMK AO2 T10291031
KRPH 101355Z AUTO 00000KT 10SM CLR M04/M04 A3036 RMK AO2 T10411041
KRPH 101335Z AUTO 00000KT 10SM CLR M04/M04 A3036 RMK AO2 T10401041
KRPH 101315Z AUTO 00000KT 10SM CLR M04/M04 A3036 RMK AO2 T10401040
KRPH 101255Z AUTO 00000KT 10SM CLR M04/M04 A3035 RMK AO2 T10381040
KRPH 101235Z AUTO 00000KT 10SM CLR M04/M04 A3035 RMK AO2 T10411042
KRPH 101215Z AUTO 00000KT 10SM CLR M04/M04 A3035 RMK AO2 T10361037
KRPH 101155Z AUTO 00000KT 10SM CLR M04/M04 A3034 RMK AO2 T10411045 11019 21041
KRPH 101135Z AUTO 00000KT 10SM CLR M03/M03 A3035 RMK AO2 T10301033
KRPH 101115Z AUTO 00000KT 10SM CLR M03/M03 A3034 RMK AO2 T10321033
KRPH 101055Z AUTO 00000KT 10SM CLR M04/M04 A3033 RMK AO2 T10381038
KRPH 101035Z AUTO 00000KT 10SM CLR M03/M03 A3033 RMK AO2 T10341035
KRPH 101015Z AUTO 00000KT 10SM CLR M03/M03 A3034 RMK AO2 T10341034
KRPH 100955Z AUTO 19003KT 10SM CLR M03/M03 A3034 RMK AO2 T10301030
KRPH 100935Z AUTO 00000KT 10SM CLR M04/M04 A3035 RMK AO2 T10401040
KRPH 100915Z AUTO 00000KT 10SM CLR M04/M04 A3035 RMK AO2 T10361036
KRPH 100855Z AUTO 00000KT 10SM CLR M03/M03 A3035 RMK AO2 T10341034
KRPH 100835Z AUTO 00000KT 10SM CLR M03/M03 A3035 RMK AO2 T10351035
KRPH 100815Z AUTO 00000KT 10SM CLR M03/M03 A3035 RMK AO2 T10301030
KRPH 100755Z AUTO 00000KT 10SM CLR M03/M03 A3035 RMK AO2 T10311031
KRPH 100735Z AUTO 00000KT 10SM CLR M02/M02 A3035 RMK AO2 T10251025
KRPH 100715Z AUTO 00000KT 10SM CLR M03/M03 A3036 RMK AO2 T10271027
KRPH 100655Z AUTO 00000KT 10SM CLR M02/M02 A3035 RMK AO2 T10241024
KRPH 100635Z AUTO 00000KT 10SM CLR M02/M02 A3036 RMK AO2 T10191019
KRPH 100615Z AUTO 00000KT 10SM CLR M03/M03 A3036 RMK AO2 T10261026
KRPH 100555Z AUTO 00000KT 10SM CLR M02/M02 A3037 RMK AO2 T10251025 10044 21025 400831025
KRPH 100535Z AUTO 00000KT 10SM CLR M02/M02 A3037 RMK AO2 T10201020
KRPH 100520Z AUTO 00000KT 10SM CLR M02/M02 A3038 RMK AO2 T10181020
KRPH 100455Z AUTO 00000KT 10SM CLR M02/M02 A3037 RMK AO2 T10171018
KRPH 100435Z AUTO 00000KT 10SM CLR M01/M02 A3037 RMK AO2 T10121018
KRPH 100415Z AUTO 00000KT 10SM CLR M01/M02 A3038 RMK AO2 T10111017
KRPH 100355Z AUTO 00000KT 10SM CLR 00/M01 A3037 RMK AO2 T00021012
KRPH 100335Z AUTO 00000KT 10SM CLR 01/M01 A3037 RMK AO2 T00091011
KRPH 100315Z AUTO 00000KT 10SM CLR 01/M01 A3037 RMK AO2 T00101010
KRPH 100255Z AUTO 00000KT 10SM CLR 01/M01 A3038 RMK AO2 T00101007
KRPH 100235Z AUTO 00000KT 10SM CLR 00/M01 A3037 RMK AO2 T00041009
KRPH 100215Z AUTO 00000KT 10SM CLR 01/M01 A3036 RMK AO2 T00111007
KRPH 100155Z AUTO 00000KT 10SM CLR 01/M01 A3036 RMK AO2 T00051006
KRPH 100135Z AUTO 00000KT 10SM CLR 02/M01 A3036 RMK AO2 T00201007
KRPH 100115Z AUTO 00000KT 10SM CLR 03/00 A3035 RMK AO2 T00261005